Time;durP1;ratioP1;P1;durP2;ratioP2;P2;SDS_P1;SDS_P2;PMS_P1;PMS_P2;Temp;Humidity;BMP_temperature;BMP_pressure;BME280_temperature;BME280_humidity;BME280_pressure;Samples;Min_cycle;Max_cycle;Signal;HPM_P1;HPM_P2
2023/07/31 00:01:50;;;;;;;0.10;0.10;;;;;;;19.12;79.53;101012.41;5033165;28;20388;-83
2023/07/31 00:04:16;;;;;;;0.17;0.17;;;;;;;19.10;79.58;101025.88;5036349;28;20064;-83
2023/07/31 00:06:42;;;;;;;0.15;0.15;;;;;;;19.07;79.34;101016.19;5052682;28;20061;-83
2023/07/31 00:09:08;;;;;;;1.00;1.00;;;;;;;19.05;79.53;101031.53;5033257;28;20034;-84
2023/07/31 00:11:34;;;;;;;0.30;0.30;;;;;;;18.99;79.29;101021.09;5029254;28;20033;-83
2023/07/31 00:14:01;;;;;;;2.70;2.35;;;;;;;19.09;79.23;101013.44;5031415;28;20496;-83
2023/07/31 00:16:27;;;;;;;0.10;0.10;;;;;;;19.01;79.17;101019.19;5038465;28;20040;-83
2023/07/31 00:18:53;;;;;;;1.95;0.70;;;;;;;18.96;79.28;101023.94;5039638;28;20056;-83
2023/07/31 00:21:19;;;;;;;0.10;0.10;;;;;;;19.02;79.22;101014.72;5039935;28;20116;-84
2023/07/31 00:23:45;;;;;;;0.10;0.10;;;;;;;18.93;79.23;101016.06;5037466;28;20041;-85
2023/07/31 00:26:11;;;;;;;0.22;0.22;;;;;;;18.88;78.88;101012.72;5039570;28;20040;-85
2023/07/31 00:28:37;;;;;;;0.20;0.20;;;;;;;18.88;79.20;101028.84;5037624;28;20030;-84
2023/07/31 00:31:03;;;;;;;0.68;0.68;;;;;;;18.88;79.17;101008.22;5037972;28;20113;-83
2023/07/31 00:33:34;;;;;;;4.45;2.38;;;;;;;18.79;79.61;101010.50;5037879;28;20041;-83
2023/07/31 00:36:00;;;;;;;0.10;0.10;;;;;;;18.75;79.51;101020.53;5043733;28;20507;-83
2023/07/31 00:38:26;;;;;;;0.73;0.73;;;;;;;18.82;79.06;101013.03;5042136;28;20067;-83
2023/07/31 00:40:52;;;;;;;0.30;0.30;;;;;;;18.77;79.58;101010.59;5043304;28;20104;-83
2023/07/31 00:43:19;;;;;;;0.25;0.25;;;;;;;18.84;79.46;101008.44;5041506;28;20049;-82
2023/07/31 00:45:45;;;;;;;0.40;0.40;;;;;;;18.84;79.55;101013.81;5039966;28;20033;-83
2023/07/31 00:48:11;;;;;;;0.10;0.10;;;;;;;18.72;79.98;101018.88;5023311;28;20032;-84
2023/07/31 00:50:38;;;;;;;2.00;1.60;;;;;;;18.78;79.84;101016.81;5035721;28;20022;-84
2023/07/31 00:53:05;;;;;;;16.58;2.70;;;;;;;18.72;80.22;101018.00;5040266;28;20041;-83
2023/07/31 00:55:31;;;;;;;0.73;0.73;;;;;;;18.66;80.31;101008.44;5038949;28;20048;-83
2023/07/31 00:57:57;;;;;;;0.20;0.20;;;;;;;18.78;79.90;101000.72;5039706;28;20432;-83
2023/07/31 01:00:23;;;;;;;0.68;0.68;;;;;;;18.75;80.06;100997.25;5039090;28;20021;-83
2023/07/31 01:02:51;;;;;;;0.17;0.17;;;;;;;18.81;79.76;101005.94;5037871;28;20064;-84
2023/07/31 01:05:25;;;;;;;1.25;0.73;;;;;;;18.76;80.23;100998.97;5040756;28;20037;-81
2023/07/31 01:08:05;;;;;;;0.15;0.15;;;;;;;18.85;79.61;101002.97;5054745;28;20033;-82
2023/07/31 01:10:41;;;;;;;0.43;0.43;;;;;;;18.78;79.85;100996.22;5054419;28;20055;-83
2023/07/31 01:13:09;;;;;;;3.40;1.40;;;;;;;18.67;80.60;101007.50;5057687;28;20089;-83
2023/07/31 01:15:36;;;;;;;0.20;0.20;;;;;;;18.71;80.45;101010.91;5058310;28;20025;-82
2023/07/31 01:18:02;;;;;;;5.13;1.85;;;;;;;18.65;80.16;101000.47;5048717;28;20037;-83
2023/07/31 01:20:30;;;;;;;0.10;0.10;;;;;;;18.73;79.60;101015.25;5046873;28;20100;-83
2023/07/31 01:23:29;;;;;;;0.20;0.20;;;;;;;18.57;79.92;101041.13;5045871;28;20021;-83
2023/07/31 01:26:18;;;;;;;0.50;0.50;;;;;;;18.72;78.99;101008.13;5037239;28;20045;-83
2023/07/31 01:29:14;;;;;;;0.22;0.22;;;;;;;18.58;79.29;101026.78;5035163;28;20037;-84
2023/07/31 01:31:42;;;;;;;0.05;0.05;;;;;;;18.43;79.45;100994.41;5043318;28;20024;-83
2023/07/31 01:34:10;;;;;;;0.30;0.30;;;;;;;18.48;79.80;101004.00;5041369;28;20057;-84
2023/07/31 01:36:36;;;;;;;1.05;1.05;;;;;;;18.48;79.63;100993.28;5042713;28;20026;-84
2023/07/31 01:39:03;;;;;;;0.10;0.10;;;;;;;18.43;79.66;101007.81;5039563;28;20052;-83
2023/07/31 01:41:29;;;;;;;0.10;0.10;;;;;;;18.48;79.91;100987.91;5040754;28;20040;-84
2023/07/31 01:43:55;;;;;;;1.20;0.75;;;;;;;18.48;79.88;100983.44;5040820;28;20064;-83
2023/07/31 01:46:22;;;;;;;0.40;0.40;;;;;;;18.52;79.81;100986.84;5035638;28;20033;-83
2023/07/31 01:48:48;;;;;;;0.85;0.85;;;;;;;18.54;80.13;100985.81;5039693;28;20400;-83
2023/07/31 01:51:14;;;;;;;0.10;0.10;;;;;;;18.54;80.38;100984.94;5039120;28;20033;-83
2023/07/31 01:53:40;;;;;;;0.20;0.20;;;;;;;18.58;80.04;100976.66;5036983;28;20142;-84
2023/07/31 01:56:06;;;;;;;3.20;0.68;;;;;;;18.63;79.72;100971.06;5038086;28;20079;-82
2023/07/31 01:58:32;;;;;;;0.10;0.10;;;;;;;18.60;79.95;100968.50;5035904;28;20045;-83
2023/07/31 02:00:58;;;;;;;0.10;0.10;;;;;;;18.63;79.49;100960.31;5035195;28;20075;-82
2023/07/31 02:03:24;;;;;;;0.10;0.10;;;;;;;18.61;78.99;100961.34;5035890;28;20492;-83
2023/07/31 02:05:51;;;;;;;0.65;0.65;;;;;;;18.64;79.04;100948.63;5032742;28;20030;-82
2023/07/31 02:08:17;;;;;;;0.63;0.63;;;;;;;18.68;78.78;100958.25;5032574;28;20410;-84
2023/07/31 02:10:43;;;;;;;1.33;1.30;;;;;;;18.57;79.00;100944.53;5035831;28;20225;-84
2023/07/31 02:13:11;;;;;;;0.45;0.45;;;;;;;18.63;78.16;100927.22;5035687;28;20037;-83
2023/07/31 02:15:37;;;;;;;0.20;0.20;;;;;;;18.75;77.98;100934.63;5047344;28;20065;-82
2023/07/31 02:18:03;;;;;;;0.63;0.63;;;;;;;18.69;77.70;100927.78;5054389;28;20021;-81
2023/07/31 02:20:29;;;;;;;0.35;0.35;;;;;;;18.79;77.63;100933.53;5053878;28;20028;-83
2023/07/31 02:22:55;;;;;;;0.22;0.22;;;;;;;18.79;77.73;100921.91;5051600;28;20021;-83
2023/07/31 02:25:21;;;;;;;0.63;0.63;;;;;;;18.71;77.65;100933.94;5053372;28;20045;-83
2023/07/31 02:27:47;;;;;;;0.30;0.30;;;;;;;18.71;77.87;100935.75;5053671;28;20060;-83
2023/07/31 02:30:14;;;;;;;0.95;0.90;;;;;;;18.76;77.71;100933.69;5053197;28;20025;-83
2023/07/31 02:32:40;;;;;;;7.82;1.33;;;;;;;18.80;77.57;100934.41;5049978;28;20028;-81
2023/07/31 02:35:06;;;;;;;0.40;0.40;;;;;;;18.75;77.49;100938.22;5046689;28;20033;-83
2023/07/31 02:37:33;;;;;;;1.65;1.45;;;;;;;18.79;77.17;100932.66;5055127;28;20052;-82
2023/07/31 02:39:59;;;;;;;0.28;0.28;;;;;;;18.68;77.15;100944.84;5051802;28;20018;-83
2023/07/31 02:42:25;;;;;;;0.40;0.40;;;;;;;18.71;76.82;100925.88;5050552;28;20042;-82
2023/07/31 02:44:55;;;;;;;0.10;0.10;;;;;;;18.82;76.66;100921.78;5055432;28;20060;-82
2023/07/31 02:47:22;;;;;;;0.00;0.00;;;;;;;18.78;76.35;100921.06;5052834;28;20040;-83
2023/07/31 02:49:48;;;;;;;0.30;0.30;;;;;;;18.81;76.32;100920.03;5049746;28;20049;-85
2023/07/31 02:52:14;;;;;;;0.22;0.22;;;;;;;18.60;75.59;100922.88;5048260;28;20024;-82
2023/07/31 02:54:40;;;;;;;3.13;0.73;;;;;;;18.64;75.17;100913.75;5050335;28;20022;-84
2023/07/31 02:57:06;;;;;;;0.10;0.10;;;;;;;18.68;74.78;100915.31;5041061;28;20037;-84
2023/07/31 02:59:33;;;;;;;0.30;0.30;;;;;;;18.69;74.81;100911.69;5042232;28;20101;-84
2023/07/31 03:01:59;;;;;;;0.40;0.40;;;;;;;18.68;74.40;100904.59;5040419;28;20093;-84
2023/07/31 03:04:25;;;;;;;0.13;0.13;;;;;;;18.66;74.53;100895.72;5040622;28;20029;-84
2023/07/31 03:06:51;;;;;;;1.55;1.45;;;;;;;18.75;74.57;100891.69;5040309;28;20029;-83
2023/07/31 03:09:17;;;;;;;0.15;0.15;;;;;;;18.70;74.39;100889.25;5047674;28;20044;-84
2023/07/31 03:11:43;;;;;;;0.40;0.40;;;;;;;18.71;74.26;100899.03;5034410;28;20037;-84
2023/07/31 03:14:09;;;;;;;0.10;0.10;;;;;;;18.61;74.12;100891.56;5038019;28;20068;-84
2023/07/31 03:16:35;;;;;;;1.23;1.23;;;;;;;18.63;74.10;100889.66;5029851;28;20033;-84
2023/07/31 03:19:04;;;;;;;0.60;0.60;;;;;;;18.70;74.16;100889.25;5038546;28;20374;-84
2023/07/31 03:21:30;;;;;;;0.10;0.10;;;;;;;18.71;73.61;100896.34;5054441;28;20478;-84
2023/07/31 03:23:57;;;;;;;0.95;0.95;;;;;;;18.83;73.96;100905.56;5057908;28;20029;-84
2023/07/31 03:26:23;;;;;;;0.10;0.10;;;;;;;18.83;73.76;100899.31;5040819;28;20382;-84
2023/07/31 03:28:49;;;;;;;0.20;0.20;;;;;;;18.83;73.88;100891.28;5032832;28;20036;-84
2023/07/31 03:31:15;;;;;;;0.10;0.10;;;;;;;18.86;73.56;100896.50;5034060;28;20056;-82
2023/07/31 03:33:42;;;;;;;0.20;0.20;;;;;;;18.91;73.68;100886.41;5050431;28;20025;-84
2023/07/31 03:36:08;;;;;;;0.10;0.10;;;;;;;18.88;73.48;100883.88;5039048;28;20034;-84
2023/07/31 03:38:34;;;;;;;0.20;0.20;;;;;;;18.87;73.50;100893.72;5039472;28;20060;-83
2023/07/31 03:41:02;;;;;;;1.23;1.23;;;;;;;18.82;73.89;100892.25;5050726;28;20021;-85
2023/07/31 03:43:28;;;;;;;0.52;0.52;;;;;;;18.88;73.86;100883.88;5050188;28;20432;-83
2023/07/31 03:45:54;;;;;;;1.80;1.73;;;;;;;18.95;73.65;100879.91;5044063;28;20060;-84
2023/07/31 03:48:20;;;;;;;0.50;0.50;;;;;;;18.95;73.52;100887.94;5045536;28;20033;-84
2023/07/31 03:50:46;;;;;;;0.30;0.30;;;;;;;18.84;73.93;100884.97;5032913;28;20036;-83
2023/07/31 03:53:12;;;;;;;0.55;0.45;;;;;;;18.72;74.47;100878.44;5037697;28;20041;-84
2023/07/31 03:55:38;;;;;;;0.30;0.30;;;;;;;18.54;75.27;100867.75;5042524;28;20061;-84
2023/07/31 03:58:04;;;;;;;0.10;0.10;;;;;;;18.48;75.80;100875.25;5042207;28;20037;-84
2023/07/31 04:00:30;;;;;;;4.88;2.90;;;;;;;18.50;75.67;100868.00;5042218;28;20029;-83
2023/07/31 04:02:56;;;;;;;0.10;0.10;;;;;;;18.50;75.90;100866.16;5038100;28;20041;-84
2023/07/31 04:05:23;;;;;;;0.25;0.25;;;;;;;18.40;76.52;100862.25;5041807;28;20116;-84
2023/07/31 04:07:49;;;;;;;2.50;2.30;;;;;;;18.34;76.74;100857.19;5041286;28;20034;-83
2023/07/31 04:10:15;;;;;;;0.10;0.10;;;;;;;18.29;76.67;100849.38;5041368;28;20557;-83
2023/07/31 04:12:41;;;;;;;0.15;0.15;;;;;;;18.27;76.88;100853.97;5040250;28;20160;-83
2023/07/31 04:15:07;;;;;;;0.22;0.22;;;;;;;18.25;76.93;100848.66;5040855;28;20048;-83
2023/07/31 04:17:34;;;;;;;0.10;0.10;;;;;;;18.35;76.86;100849.06;5046688;28;20025;-82
2023/07/31 04:20:00;;;;;;;0.10;0.10;;;;;;;18.32;77.10;100846.56;5044695;28;20038;-82
2023/07/31 04:22:26;;;;;;;0.03;0.03;;;;;;;18.33;77.34;100847.41;5053881;28;20029;-83
2023/07/31 04:24:52;;;;;;;1.08;1.05;;;;;;;18.31;77.57;100835.91;5057129;28;20037;-83
2023/07/31 04:27:18;;;;;;;1.00;0.60;;;;;;;18.28;77.66;100836.94;5050637;28;20029;-83
2023/07/31 04:29:45;;;;;;;0.10;0.10;;;;;;;18.26;77.88;100839.69;5051375;28;20061;-84
2023/07/31 04:32:12;;;;;;;0.98;0.75;;;;;;;18.29;77.97;100835.13;5043129;28;20021;-82
2023/07/31 04:34:38;;;;;;;0.10;0.10;;;;;;;18.19;78.42;100832.91;5041205;28;20061;-85
2023/07/31 04:37:04;;;;;;;3.42;0.93;;;;;;;18.23;78.59;100833.59;5038291;28;20053;-83
2023/07/31 04:39:30;;;;;;;3.10;0.80;;;;;;;18.21;78.83;100825.66;5041709;28;20029;-83
2023/07/31 04:41:56;;;;;;;0.28;0.28;;;;;;;18.23;78.70;100822.88;5040672;28;20068;-83
2023/07/31 04:44:22;;;;;;;0.10;0.10;;;;;;;18.20;78.61;100813.19;5044138;28;20458;-83
2023/07/31 04:46:48;;;;;;;0.10;0.10;;;;;;;18.26;78.62;100817.38;5043404;28;20022;-84
2023/07/31 04:49:14;;;;;;;0.32;0.32;;;;;;;18.19;79.01;100822.16;5044220;28;20037;-82
2023/07/31 04:51:40;;;;;;;0.10;0.10;;;;;;;18.11;79.30;100814.53;5041020;28;20049;-82
2023/07/31 04:54:06;;;;;;;0.20;0.20;;;;;;;18.19;79.03;100819.50;5040090;28;20107;-83
2023/07/31 04:56:32;;;;;;;0.10;0.10;;;;;;;18.09;79.06;100821.81;5039067;28;20108;-82
2023/07/31 04:58:58;;;;;;;0.10;0.10;;;;;;;18.07;79.34;100812.97;5041377;28;20092;-83
2023/07/31 05:01:25;;;;;;;0.10;0.10;;;;;;;18.07;78.82;100820.16;5036857;28;20052;-83
2023/07/31 05:03:51;;;;;;;0.17;0.17;;;;;;;18.09;79.19;100810.19;5033335;28;20034;-84
2023/07/31 05:06:17;;;;;;;0.32;0.32;;;;;;;18.02;79.44;100815.03;5027840;28;20496;-84
2023/07/31 05:08:43;;;;;;;0.50;0.50;;;;;;;17.89;80.63;100801.34;5038578;28;20040;-83
2023/07/31 05:11:09;;;;;;;0.10;0.10;;;;;;;17.99;79.91;100801.75;5030802;28;20041;-83
2023/07/31 05:13:35;;;;;;;0.10;0.10;;;;;;;17.97;79.92;100803.69;5042634;28;20040;-83
2023/07/31 05:16:01;;;;;;;0.10;0.10;;;;;;;18.03;79.67;100806.03;5045951;28;20040;-83
2023/07/31 05:18:27;;;;;;;0.10;0.10;;;;;;;18.08;79.49;100809.34;5028617;28;20026;-83
2023/07/31 05:20:53;;;;;;;0.10;0.10;;;;;;;18.08;79.67;100798.63;5027581;28;20032;-83
2023/07/31 05:23:19;;;;;;;0.15;0.15;;;;;;;18.07;79.89;100799.56;5045065;28;20112;-83
2023/07/31 05:25:46;;;;;;;0.10;0.10;;;;;;;18.06;80.01;100783.56;5036197;28;20033;-83
2023/07/31 05:28:12;;;;;;;0.00;0.00;;;;;;;18.10;80.24;100788.66;5046961;28;20028;-83
2023/07/31 05:30:39;;;;;;;0.10;0.10;;;;;;;18.04;79.96;100780.94;5040431;28;20061;-84
2023/07/31 05:33:05;;;;;;;0.20;0.20;;;;;;;18.03;80.14;100784.59;5046654;28;20065;-84
2023/07/31 05:35:31;;;;;;;0.10;0.10;;;;;;;18.09;80.41;100767.31;5044686;28;20033;-84
2023/07/31 05:37:57;;;;;;;0.10;0.10;;;;;;;17.99;80.89;100776.78;5043131;28;20033;-84
2023/07/31 05:40:23;;;;;;;0.20;0.20;;;;;;;17.99;80.94;100766.91;5042662;28;20044;-84
2023/07/31 05:42:49;;;;;;;0.10;0.10;;;;;;;18.08;80.87;100763.78;5039275;28;20060;-84
2023/07/31 05:45:15;;;;;;;0.10;0.10;;;;;;;18.05;81.22;100768.41;5023998;28;20033;-84
2023/07/31 05:47:41;;;;;;;0.17;0.17;;;;;;;18.01;81.53;100765.03;5041935;28;20044;-83
2023/07/31 05:50:08;;;;;;;0.20;0.20;;;;;;;18.16;80.92;100765.19;5041683;28;20044;-83
2023/07/31 05:52:34;;;;;;;0.10;0.10;;;;;;;18.14;81.09;100753.66;5038234;28;20060;-83
2023/07/31 05:55:01;;;;;;;0.13;0.13;;;;;;;18.21;80.72;100755.94;5038573;28;20033;-83
2023/07/31 05:57:27;;;;;;;0.10;0.10;;;;;;;18.11;81.22;100743.97;5050057;28;20045;-83
2023/07/31 05:59:53;;;;;;;0.10;0.10;;;;;;;18.14;81.21;100742.94;5054045;28;20057;-84
2023/07/31 06:02:19;;;;;;;2.28;1.20;;;;;;;18.19;81.22;100754.28;5049076;28;20041;-84
2023/07/31 06:04:45;;;;;;;0.68;0.68;;;;;;;18.20;81.53;100742.59;5048216;28;20020;-84
2023/07/31 06:07:11;;;;;;;0.10;0.10;;;;;;;18.20;81.48;100753.34;5051042;28;20572;-83
2023/07/31 06:09:37;;;;;;;0.10;0.10;;;;;;;18.18;81.44;100744.50;5040934;28;20041;-84
2023/07/31 06:12:04;;;;;;;0.32;0.32;;;;;;;18.27;81.39;100750.25;5039998;28;20057;-84
2023/07/31 06:14:30;;;;;;;0.10;0.10;;;;;;;18.24;81.39;100750.41;5041738;28;20025;-84
2023/07/31 06:16:56;;;;;;;0.22;0.22;;;;;;;18.22;81.48;100752.31;5040857;28;20038;-84
2023/07/31 06:19:22;;;;;;;0.10;0.10;;;;;;;18.31;81.43;100750.94;5033718;28;20409;-83
2023/07/31 06:21:48;;;;;;;0.10;0.10;;;;;;;18.33;81.76;100749.06;5030611;28;20025;-84
2023/07/31 06:24:18;;;;;;;0.10;0.10;;;;;;;18.27;82.21;100744.88;5034507;28;20033;-83
2023/07/31 06:26:44;;;;;;;0.10;0.10;;;;;;;18.25;82.12;100744.06;5032755;28;20033;-83
2023/07/31 06:29:10;;;;;;;0.10;0.10;;;;;;;18.36;82.04;100739.97;5029689;28;20033;-84
2023/07/31 06:31:36;;;;;;;0.10;0.10;;;;;;;18.42;81.61;100740.50;5033150;28;20037;-83
2023/07/31 06:34:02;;;;;;;0.30;0.30;;;;;;;18.43;82.28;100733.31;5032666;28;20118;-83
2023/07/31 06:36:29;;;;;;;0.10;0.10;;;;;;;18.40;82.45;100731.66;5028722;28;20037;-82
2023/07/31 06:38:54;;;;;;;0.20;0.20;;;;;;;18.51;81.99;100730.22;5035370;28;20042;-84
2023/07/31 06:41:21;;;;;;;0.85;0.60;;;;;;;18.54;82.03;100727.34;5035684;28;20037;-83
2023/07/31 06:43:47;;;;;;;0.10;0.10;;;;;;;18.55;82.00;100724.56;5026239;28;20060;-83
2023/07/31 06:46:13;;;;;;;0.20;0.20;;;;;;;18.51;81.92;100724.84;5037891;28;20038;-82
2023/07/31 06:48:39;;;;;;;8.20;1.42;;;;;;;18.51;81.77;100719.50;5032735;28;20017;-83
2023/07/31 06:51:05;;;;;;;0.10;0.10;;;;;;;18.57;81.54;100713.78;5033761;28;20037;-83
2023/07/31 06:53:31;;;;;;;0.10;0.10;;;;;;;18.54;81.83;100721.97;5037133;28;20492;-84
2023/07/31 06:55:57;;;;;;;1.25;0.68;;;;;;;18.51;81.90;100714.97;5040861;28;20026;-84
2023/07/31 06:58:23;;;;;;;0.10;0.10;;;;;;;18.54;81.89;100716.63;5047084;28;20040;-84
2023/07/31 07:00:50;;;;;;;0.10;0.10;;;;;;;18.49;82.34;100716.91;5047475;28;20116;-84
2023/07/31 07:03:19;;;;;;;0.10;0.10;;;;;;;18.54;82.35;100722.88;5043985;28;20459;-83
2023/07/31 07:05:45;;;;;;;0.10;0.10;;;;;;;18.54;82.07;100705.88;5031814;28;20022;-83
2023/07/31 07:08:11;;;;;;;0.10;0.10;;;;;;;18.46;82.69;100705.47;5030801;28;20038;-83
2023/07/31 07:10:37;;;;;;;0.10;0.10;;;;;;;18.54;81.88;100716.63;5045412;28;20044;-83
2023/07/31 07:13:03;;;;;;;0.10;0.10;;;;;;;18.55;81.95;100713.00;5044793;28;20026;-82
2023/07/31 07:15:29;;;;;;;0.10;0.10;;;;;;;18.62;82.99;100710.81;5046896;28;20053;-84
2023/07/31 07:17:56;;;;;;;0.10;0.10;;;;;;;18.74;82.33;100723.53;5049553;28;20029;-83
2023/07/31 07:20:22;;;;;;;0.52;0.52;;;;;;;18.78;82.30;100711.72;5040768;28;20124;-82
2023/07/31 07:22:48;;;;;;;0.10;0.10;;;;;;;18.85;82.35;100712.22;5053483;28;20022;-83
2023/07/31 07:25:14;;;;;;;0.15;0.15;;;;;;;18.80;82.41;100714.31;5041517;28;20047;-83
2023/07/31 07:27:40;;;;;;;0.10;0.10;;;;;;;18.76;82.25;100702.88;5047760;28;20033;-83
2023/07/31 07:30:07;;;;;;;0.15;0.15;;;;;;;18.88;81.91;100706.69;5060209;28;20040;-83
2023/07/31 07:32:33;;;;;;;0.00;0.00;;;;;;;18.89;81.84;100703.91;5049972;28;20033;-81
2023/07/31 07:34:59;;;;;;;0.52;0.52;;;;;;;18.96;81.83;100704.44;5057628;28;20033;-84
2023/07/31 07:37:25;;;;;;;0.10;0.10;;;;;;;18.96;81.63;100711.66;5052540;28;20056;-84
2023/07/31 07:39:51;;;;;;;0.05;0.05;;;;;;;18.98;81.62;100697.19;5044528;28;20029;-81
2023/07/31 07:42:17;;;;;;;0.20;0.20;;;;;;;19.01;81.88;100702.34;5052425;28;20064;-82
2023/07/31 07:44:43;;;;;;;0.10;0.10;;;;;;;19.05;81.36;100711.09;5051504;28;20021;-82
2023/07/31 07:47:09;;;;;;;0.10;0.10;;;;;;;19.01;81.78;100717.59;5047814;28;20108;-81
2023/07/31 07:49:35;;;;;;;0.10;0.10;;;;;;;18.97;81.93;100711.56;5043850;28;20022;-84
2023/07/31 07:52:02;;;;;;;0.10;0.10;;;;;;;19.07;81.97;100723.47;5046038;28;20045;-84
2023/07/31 07:54:28;;;;;;;0.10;0.10;;;;;;;19.06;82.10;100716.38;5044022;28;20037;-82
2023/07/31 07:56:54;;;;;;;0.10;0.10;;;;;;;19.01;82.04;100721.16;5043143;28;20049;-82
2023/07/31 07:59:20;;;;;;;0.10;0.10;;;;;;;19.03;81.75;100700.47;5044711;28;20030;-83
2023/07/31 08:01:46;;;;;;;0.10;0.10;;;;;;;19.08;82.12;100700.19;5044464;28;20033;-83
2023/07/31 08:04:13;;;;;;;0.60;0.60;;;;;;;19.04;82.29;100696.81;5043413;28;20067;-84
2023/07/31 08:06:39;;;;;;;0.10;0.10;;;;;;;19.20;82.10;100701.28;5041729;28;20041;-83
2023/07/31 08:09:08;;;;;;;0.10;0.10;;;;;;;19.20;81.68;100696.81;5045033;28;20039;-84
2023/07/31 08:11:35;;;;;;;0.10;0.10;;;;;;;19.13;82.23;100683.78;5041768;28;20033;-84
2023/07/31 08:14:01;;;;;;;0.10;0.10;;;;;;;19.19;81.68;100684.31;5021708;28;20029;-82
2023/07/31 08:16:27;;;;;;;0.10;0.10;;;;;;;19.15;82.19;100687.28;5039952;28;20036;-84
2023/07/31 08:18:53;;;;;;;0.10;0.10;;;;;;;19.25;82.02;100683.06;5038791;28;20049;-83
2023/07/31 08:21:20;;;;;;;0.30;0.30;;;;;;;19.16;81.95;100675.56;5041109;28;20185;-82
2023/07/31 08:23:46;;;;;;;0.10;0.10;;;;;;;19.22;82.11;100686.81;5040564;28;20022;-83
2023/07/31 08:26:17;;;;;;;0.00;0.00;;;;;;;19.33;81.90;100680.81;5039197;28;20044;-84
2023/07/31 08:28:43;;;;;;;0.52;0.52;;;;;;;19.27;81.74;100704.50;5042694;28;20022;-84
2023/07/31 08:31:10;;;;;;;0.10;0.10;;;;;;;19.28;81.82;100699.03;5044051;28;20065;-82
2023/07/31 08:33:36;;;;;;;0.10;0.10;;;;;;;19.28;81.92;100693.66;5042191;28;20029;-82
2023/07/31 08:36:03;;;;;;;0.20;0.20;;;;;;;19.28;81.96;100677.53;5056794;28;20034;-83
2023/07/31 08:38:29;;;;;;;0.40;0.40;;;;;;;19.32;82.22;100670.16;5057817;28;20132;-84
2023/07/31 08:40:57;;;;;;;0.10;0.10;;;;;;;19.37;82.34;100678.81;5041936;28;20037;-84
2023/07/31 08:43:26;;;;;;;0.10;0.10;;;;;;;19.45;82.11;100675.66;5042041;28;20076;-83
2023/07/31 08:45:53;;;;;;;0.10;0.10;;;;;;;19.42;81.97;100683.91;5048421;28;20057;-83
2023/07/31 08:48:22;;;;;;;0.10;0.10;;;;;;;19.55;81.82;100675.03;5043612;28;20026;-82
2023/07/31 08:50:48;;;;;;;0.10;0.10;;;;;;;19.59;82.19;100674.81;5046642;28;20035;-80
2023/07/31 08:53:14;;;;;;;0.43;0.43;;;;;;;19.46;81.99;100675.56;5047400;28;20582;-82
2023/07/31 08:55:41;;;;;;;0.10;0.10;;;;;;;19.47;82.26;100682.66;5045709;28;20029;-81
2023/07/31 08:58:07;;;;;;;0.10;0.10;;;;;;;19.60;82.60;100677.44;5045115;28;20072;-81
2023/07/31 09:00:35;;;;;;;0.10;0.10;;;;;;;19.68;82.42;100680.50;5043321;28;20064;-83
2023/07/31 09:03:08;;;;;;;0.10;0.10;;;;;;;19.78;82.25;100679.97;5042196;28;20105;-83
2023/07/31 09:05:35;;;;;;;0.10;0.10;;;;;;;19.78;81.99;100682.66;5038751;28;20041;-84
2023/07/31 09:08:04;;;;;;;0.20;0.20;;;;;;;19.88;81.57;100673.09;5048527;28;20044;-84
2023/07/31 09:10:30;;;;;;;0.10;0.10;;;;;;;19.70;81.80;100675.91;5061590;28;20116;-85
2023/07/31 09:12:57;;;;;;;0.10;0.10;;;;;;;19.86;81.38;100683.06;5048229;28;20042;-84
2023/07/31 09:15:25;;;;;;;0.10;0.10;;;;;;;19.79;82.18;100676.28;5039834;28;20033;-84
2023/07/31 09:18:00;;;;;;;0.25;0.25;;;;;;;19.83;81.73;100678.72;5032384;28;20095;-84
2023/07/31 09:20:27;;;;;;;0.10;0.10;;;;;;;19.76;81.54;100673.81;5028331;28;20010;-84
2023/07/31 09:22:54;;;;;;;0.10;0.10;;;;;;;19.59;82.26;100678.38;5049164;28;20048;-84
2023/07/31 09:25:23;;;;;;;0.10;0.10;;;;;;;19.54;82.60;100677.81;5048493;28;20460;-83
2023/07/31 09:27:54;;;;;;;0.10;0.10;;;;;;;19.70;82.38;100672.34;5042877;28;20041;-83
2023/07/31 09:30:21;;;;;;;0.10;0.10;;;;;;;19.67;82.40;100673.41;5044652;28;20056;-84
2023/07/31 09:32:48;;;;;;;0.00;0.00;;;;;;;19.67;82.56;100673.41;5034955;28;20021;-83
2023/07/31 09:37:59;;;;;;;0.10;0.10;;;;;;;19.75;82.23;100661.31;5100442;27;20422;-82
2023/07/31 09:40:27;;;;;;;0.22;0.22;;;;;;;19.87;82.29;100668.66;5079114;28;20028;-83
2023/07/31 09:42:56;;;;;;;0.10;0.10;;;;;;;19.88;82.74;100671.25;5088548;28;20043;-82
2023/07/31 09:45:23;;;;;;;0.10;0.10;;;;;;;19.85;82.58;100663.38;5092868;28;20687;-82
2023/07/31 09:47:49;;;;;;;0.15;0.15;;;;;;;20.02;82.45;100665.00;5094567;28;20032;-83
2023/07/31 09:50:16;;;;;;;0.10;0.10;;;;;;;20.01;81.89;100655.22;5096760;28;20386;-82
2023/07/31 09:52:42;;;;;;;0.10;0.10;;;;;;;19.96;81.63;100651.97;5069525;28;20059;-82
2023/07/31 09:55:09;;;;;;;0.10;0.10;;;;;;;19.91;81.81;100662.13;5100655;28;20031;-82
2023/07/31 09:57:42;;;;;;;0.10;0.10;;;;;;;20.04;81.55;100659.53;5097004;28;20052;-81
2023/07/31 10:00:09;;;;;;;0.10;0.10;;;;;;;20.03;81.88;100657.81;5077044;28;20033;-83
2023/07/31 10:02:37;;;;;;;0.03;0.03;;;;;;;20.04;81.50;100654.16;5076999;28;20752;-82
2023/07/31 10:05:07;;;;;;;0.10;0.10;;;;;;;20.01;81.70;100652.53;5097027;28;20036;-81
2023/07/31 10:07:39;;;;;;;0.47;0.47;;;;;;;20.02;81.89;100654.25;5092233;28;20088;-81
2023/07/31 10:10:09;;;;;;;0.10;0.10;;;;;;;20.06;81.58;100663.00;5101066;28;20029;-82
2023/07/31 10:12:37;;;;;;;0.30;0.30;;;;;;;20.08;81.22;100658.38;5087484;28;20032;-82
2023/07/31 10:15:04;;;;;;;0.10;0.10;;;;;;;20.06;81.00;100654.06;5091538;28;20044;-82
2023/07/31 10:17:33;;;;;;;0.10;0.10;;;;;;;20.04;81.41;100675.69;5096128;28;20048;-82
2023/07/31 10:20:03;;;;;;;0.10;0.10;;;;;;;20.13;80.89;100667.03;5095598;28;20037;-81
2023/07/31 10:22:30;;;;;;;0.10;0.10;;;;;;;20.19;80.74;100661.25;5105193;28;20092;-81
2023/07/31 10:24:58;;;;;;;0.10;0.10;;;;;;;20.29;80.25;100666.06;5106314;28;20443;-82
2023/07/31 10:27:25;;;;;;;0.10;0.10;;;;;;;20.35;80.12;100661.16;5094393;28;20033;-81
2023/07/31 10:29:54;;;;;;;0.10;0.10;;;;;;;20.25;80.13;100664.50;5088562;28;20027;-82
2023/07/31 10:32:21;;;;;;;0.10;0.10;;;;;;;20.29;79.76;100671.44;5091494;28;20024;-81
2023/07/31 10:34:49;;;;;;;0.05;0.05;;;;;;;20.11;80.24;100673.47;5089285;28;20048;-81
2023/07/31 10:37:39;;;;;;;0.20;0.20;;;;;;;20.27;79.35;100650.00;5084239;28;20021;-81
2023/07/31 10:40:16;;;;;;;0.10;0.10;;;;;;;20.19;79.79;100671.16;5089574;28;20017;-80
2023/07/31 10:48:15;;;;;;;0.95;0.82;;;;;;;20.30;79.06;100652.50;5152738;27;20397;-81
2023/07/31 10:50:52;;;;;;;0.10;0.10;;;;;;;20.45;79.04;100652.47;5142465;27;20041;-81
2023/07/31 10:53:28;;;;;;;0.10;0.10;;;;;;;20.34;79.09;100653.19;5136412;28;20047;-81
2023/07/31 10:55:59;;;;;;;0.10;0.10;;;;;;;20.33;78.87;100663.06;5133550;28;20035;-83
2023/07/31 10:58:25;;;;;;;0.00;0.00;;;;;;;20.40;78.69;100654.59;5126070;27;20042;-81
2023/07/31 11:00:56;;;;;;;0.10;0.10;;;;;;;20.41;78.82;100650.94;5128331;27;20038;-79
2023/07/31 11:03:26;;;;;;;0.10;0.10;;;;;;;20.40;78.86;100655.47;5123423;28;20023;-79
2023/07/31 11:06:03;;;;;;;0.10;0.10;;;;;;;20.25;79.11;100646.56;5116020;28;20050;-79
2023/07/31 11:11:08;;;;;;;0.00;0.00;;;;;;;20.27;79.35;100644.63;5065077;28;20412;-80
2023/07/31 11:13:41;;;;;;;1.38;0.95;;;;;;;20.20;79.92;100633.41;5054446;28;20465;-79
2023/07/31 11:16:08;;;;;;;0.45;0.45;;;;;;;20.12;80.46;100629.47;5051898;28;20044;-80
2023/07/31 11:18:38;;;;;;;0.95;0.52;;;;;;;20.28;80.09;100619.44;5063646;28;20029;-80
2023/07/31 11:21:04;;;;;;;0.10;0.10;;;;;;;20.20;80.56;100627.16;5053641;28;20044;-80
2023/07/31 11:23:31;;;;;;;0.10;0.10;;;;;;;20.33;80.20;100627.22;5043273;28;20033;-79
2023/07/31 11:26:00;;;;;;;0.10;0.10;;;;;;;20.39;80.38;100632.22;5041959;28;20046;-78
2023/07/31 11:28:31;;;;;;;0.32;0.32;;;;;;;20.39;80.89;100628.66;5052039;28;20114;-79
2023/07/31 11:30:57;;;;;;;0.10;0.10;;;;;;;20.32;80.58;100620.97;5050960;28;20036;-78
2023/07/31 11:33:23;;;;;;;0.30;0.30;;;;;;;20.36;80.42;100617.13;5057611;28;20037;-78
2023/07/31 11:35:49;;;;;;;0.10;0.10;;;;;;;20.39;80.15;100626.84;5049019;28;20068;-80